Home > Products > Valid Products > TAF

000
FTUS45 KPUB 301739
TAFALS
TAF
KALS 301739Z 3018/0118 24008G18KT P6SM SCT120
     FM010200 22006KT P6SM SCT090 BKN140
     FM011500 VRB05KT P6SM SCT090 BKN140=



000
FTUS45 KPUB 301739
TAFPUB
TAF
KPUB 301739Z 3018/0118 28012G20KT P6SM SKC
     FM302300 30010KT P6SM SCT120
     FM010200 VRB05KT P6SM SCT080 BKN140
     FM010800 30005KT P6SM SCT100 BKN200
     FM011600 08008KT P6SM SCT090 BKN200=



000
FTUS45 KPUB 301739
TAFCOS
TAF
KCOS 301739Z 3018/0118 16010KT P6SM FEW100 SCT200
     FM301900 25010G17KT P6SM SCT100 SCT200
     FM302300 30007KT P6SM SCT100 BKN200
     FM010200 02007KT P6SM SCT080 BKN120
     FM011600 14008KT P6SM SCT090 BKN140=



000
FTUS45 KPUB 301739
TAFALS
TAF
KALS 301739Z 3018/0118 24008G18KT P6SM SCT120
     FM010200 22006KT P6SM SCT090 BKN140
     FM011500 VRB05KT P6SM SCT090 BKN140=



000
FTUS45 KPUB 301739
TAFPUB
TAF
KPUB 301739Z 3018/0118 28012G20KT P6SM SKC
     FM302300 30010KT P6SM SCT120
     FM010200 VRB05KT P6SM SCT080 BKN140
     FM010800 30005KT P6SM SCT100 BKN200
     FM011600 08008KT P6SM SCT090 BKN200=



000
FTUS45 KPUB 301739
TAFCOS
TAF
KCOS 301739Z 3018/0118 16010KT P6SM FEW100 SCT200
     FM301900 25010G17KT P6SM SCT100 SCT200
     FM302300 30007KT P6SM SCT100 BKN200
     FM010200 02007KT P6SM SCT080 BKN120
     FM011600 14008KT P6SM SCT090 BKN140=



000
FTUS45 KPUB 301701 AAA
TAFPUB
TAF AMD
KPUB 301701Z 3017/0112 28012G20KT P6SM SKC
     FM302300 30010KT P6SM SCT120
     FM010200 VRB05KT P6SM SCT120=



000
FTUS45 KPUB 301701 AAA
TAFPUB
TAF AMD
KPUB 301701Z 3017/0112 28012G20KT P6SM SKC
     FM302300 30010KT P6SM SCT120
     FM010200 VRB05KT P6SM SCT120=



000
FTUS45 KPUB 301120
TAFALS
TAF
KALS 301120Z 3012/0112 VRB05KT P6SM SKC
     FM301900 24008G18KT P6SM SCT120
     FM010200 22006KT P6SM SCT120=



000
FTUS45 KPUB 301120
TAFCOS
TAF
KCOS 301120Z 3012/0112 05008KT P6SM SKC
     FM301500 VRB05KT P6SM SKC
     FM301800 16010KT P6SM SCT120
     FM010200 02007KT P6SM SCT120=



000
FTUS45 KPUB 301120
TAFPUB
TAF
KPUB 301120Z 3012/0112 VRB05KT P6SM SKC
     FM301900 13008KT P6SM SCT120
     FM010200 VRB05KT P6SM SCT120=



000
FTUS45 KPUB 301120
TAFPUB
TAF
KPUB 301120Z 3012/0112 VRB05KT P6SM SKC
     FM301900 13008KT P6SM SCT120
     FM010200 VRB05KT P6SM SCT120=



000
FTUS45 KPUB 301120
TAFALS
TAF
KALS 301120Z 3012/0112 VRB05KT P6SM SKC
     FM301900 24008G18KT P6SM SCT120
     FM010200 22006KT P6SM SCT120=



000
FTUS45 KPUB 301120
TAFCOS
TAF
KCOS 301120Z 3012/0112 05008KT P6SM SKC
     FM301500 VRB05KT P6SM SKC
     FM301800 16010KT P6SM SCT120
     FM010200 02007KT P6SM SCT120=



000
FTUS45 KPUB 300527
TAFPUB
TAF
KPUB 300527Z 3006/0106 28006KT P6SM SCT200
     FM301900 12008KT P6SM SCT120
     FM010200 VRB06KT P6SM SCT120=



000
FTUS45 KPUB 300527
TAFALS
TAF
KALS 300527Z 3006/0106 22006KT P6SM SCT150
     FM301900 24012G22KT P6SM SCT120
     FM010200 22006KT P6SM SCT120=



000
FTUS45 KPUB 300527
TAFCOS
TAF
KCOS 300527Z 3006/0106 03009KT P6SM SCT200
     FM301800 14010KT P6SM SCT120
     FM010200 02007KT P6SM SCT120=



000
FTUS45 KPUB 300527
TAFALS
TAF
KALS 300527Z 3006/0106 22006KT P6SM SCT150
     FM301900 24012G22KT P6SM SCT120
     FM010200 22006KT P6SM SCT120=



000
FTUS45 KPUB 300527
TAFPUB
TAF
KPUB 300527Z 3006/0106 28006KT P6SM SCT200
     FM301900 12008KT P6SM SCT120
     FM010200 VRB06KT P6SM SCT120=



000
FTUS45 KPUB 300527
TAFCOS
TAF
KCOS 300527Z 3006/0106 03009KT P6SM SCT200
     FM301800 14010KT P6SM SCT120
     FM010200 02007KT P6SM SCT120=



000
FTUS45 KPUB 292322
TAFPUB
TAF
KPUB 292322Z 3000/3024 29012G25KT P6SM VCTS SCT060CB BKN120
     FM300100 26012KT P6SM SCT090 BKN150
     FM300300 28006KT P6SM SCT200
     FM301900 12008KT P6SM SCT120=



000
FTUS45 KPUB 292322
TAFALS
TAF
KALS 292322Z 3000/3024 23010KT P6SM VCTS SCT060CB BKN100
     FM300100 24012KT P6SM SCT080 BKN150
     FM300500 VRB06KT P6SM SCT150
     FM301900 24012G22KT P6SM SCT120=



000
FTUS45 KPUB 292322
TAFCOS
TAF
KCOS 292322Z 3000/3024 36010KT P6SM VCTS SCT050CB BKN100
     FM300100 29010KT P6SM SCT080 BKN140
     FM300300 34008KT P6SM SCT200
     FM301800 14010KT P6SM SCT120=



000
FTUS45 KPUB 292322
TAFCOS
TAF
KCOS 292322Z 3000/3024 36010KT P6SM VCTS SCT050CB BKN100
     FM300100 29010KT P6SM SCT080 BKN140
     FM300300 34008KT P6SM SCT200
     FM301800 14010KT P6SM SCT120=



000
FTUS45 KPUB 292322
TAFPUB
TAF
KPUB 292322Z 3000/3024 29012G25KT P6SM VCTS SCT060CB BKN120
     FM300100 26012KT P6SM SCT090 BKN150
     FM300300 28006KT P6SM SCT200
     FM301900 12008KT P6SM SCT120=



000
FTUS45 KPUB 292322
TAFALS
TAF
KALS 292322Z 3000/3024 23010KT P6SM VCTS SCT060CB BKN100
     FM300100 24012KT P6SM SCT080 BKN150
     FM300500 VRB06KT P6SM SCT150
     FM301900 24012G22KT P6SM SCT120=



000
FTUS45 KPUB 292207 AAB
TAFCOS
TAF AMD
KCOS 292207Z 2922/3018 36010KT P6SM VCTS SCT050CB BKN100
      TEMPO 2922/2924 VRB25G45KT 3SM TSRA BKN030CB
     FM300100 29010KT P6SM SCT080 BKN140
     FM300300 34008KT P6SM SCT200=



000
FTUS45 KPUB 292207 AAB
TAFCOS
TAF AMD
KCOS 292207Z 2922/3018 36010KT P6SM VCTS SCT050CB BKN100
      TEMPO 2922/2924 VRB25G45KT 3SM TSRA BKN030CB
     FM300100 29010KT P6SM SCT080 BKN140
     FM300300 34008KT P6SM SCT200=



000
FTUS45 KPUB 292207 AAC
TAFPUB
TAF AMD
KPUB 292207Z 2922/3018 09010KT P6SM VCTS SCT060CB BKN120
      TEMPO 2922/2924 VRB30G45KT 3SM TSRA BKN030CB
     FM300100 26012KT P6SM SCT090 BKN150
     FM300300 28006KT P6SM SCT200=



000
FTUS45 KPUB 292207 AAC
TAFPUB
TAF AMD
KPUB 292207Z 2922/3018 09010KT P6SM VCTS SCT060CB BKN120
      TEMPO 2922/2924 VRB30G45KT 3SM TSRA BKN030CB
     FM300100 26012KT P6SM SCT090 BKN150
     FM300300 28006KT P6SM SCT200=



000
FTUS45 KPUB 292205 AAA
TAFALS
TAF AMD
KALS 292205Z 2922/3018 23010KT P6SM VCTS SCT060CB BKN100
      TEMPO 2922/3001 VRB30G40KT 5SM -TSRA BKN040CB
     FM300100 24012KT P6SM SCT080 BKN150
     FM300500 VRB06KT P6SM SCT150=



000
FTUS45 KPUB 291955 AAB
TAFPUB
TAF AMD
KPUB 291955Z 2920/3018 13014KT P6SM VCTS SCT060CB BKN120
      TEMPO 2920/2924 VRB30G45KT 3SM TSRA BKN030CB
     FM300100 26012KT P6SM SCT090 BKN150
     FM300500 28006KT P6SM FEW150 SCT200=



000
FTUS45 KPUB 291955 AAB
TAFPUB
TAF AMD
KPUB 291955Z 2920/3018 13014KT P6SM VCTS SCT060CB BKN120
      TEMPO 2920/2924 VRB30G45KT 3SM TSRA BKN030CB
     FM300100 26012KT P6SM SCT090 BKN150
     FM300500 28006KT P6SM FEW150 SCT200=



000
FTUS45 KPUB 291950 AAA
TAFCOS
TAF AMD
KCOS 291950Z 2920/3018 16010G20KT P6SM VCTS SCT050CB BKN100
      TEMPO 2920/2924 VRB25G45KT 3SM TSRA BKN030CB
     FM300100 29012KT P6SM SCT080 BKN140
     FM300500 34008KT P6SM FEW140 SCT200=



000
FTUS45 KPUB 291949 AAA
TAFPUB
TAF AMD
KPUB 291949Z 2920/3018 20014G24KT P6SM VCTS SCT060CB BKN120
      TEMPO 2920/2924 VRB25G45KT 3SM TSRA BKN040CB
     FM300100 26012KT P6SM SCT090 BKN150
     FM300500 28006KT P6SM FEW150 SCT200=



000
FTUS45 KPUB 291949 AAA
TAFPUB
TAF AMD
KPUB 291949Z 2920/3018 20014G24KT P6SM VCTS SCT060CB BKN120
      TEMPO 2920/2924 VRB25G45KT 3SM TSRA BKN040CB
     FM300100 26012KT P6SM SCT090 BKN150
     FM300500 28006KT P6SM FEW150 SCT200=



000
FTUS45 KPUB 291726
TAFCOS
TAF
KCOS 291726Z 2918/3018 16008KT P6SM SCT060
     FM292000 20015G25KT P6SM VCTS SCT050CB BKN100
      TEMPO 2920/2924 VRB25G45KT 3SM TSRA BKN030CB
     FM300100 29012KT P6SM SCT080 BKN140
     FM300500 34008KT P6SM FEW140 SCT200=



000
FTUS45 KPUB 291726
TAFPUB
TAF
KPUB 291726Z 2918/3018 13008KT P6SM SCT080
     FM292000 20014G24KT P6SM VCTS SCT060CB BKN120
      TEMPO 2920/2924 VRB25G45KT 3SM TSRA BKN040CB
     FM300100 26012KT P6SM SCT090 BKN150
     FM300500 28006KT P6SM FEW150 SCT200=



000
FTUS45 KPUB 291726
TAFALS
TAF
KALS 291726Z 2918/3018 19018G28KT P6SM VCTS SCT060CB BKN100
      TEMPO 2919/2923 VRB30G40KT 5SM -TSRA BKN040CB
     FM292300 24012G22KT P6SM SCT080 BKN150
     FM300200 24008KT P6SM SCT150
     FM300600 VRB06KT P6SM FEW200=



000
FTUS45 KPUB 291726
TAFPUB
TAF
KPUB 291726Z 2918/3018 13008KT P6SM SCT080
     FM292000 20014G24KT P6SM VCTS SCT060CB BKN120
      TEMPO 2920/2924 VRB25G45KT 3SM TSRA BKN040CB
     FM300100 26012KT P6SM SCT090 BKN150
     FM300500 28006KT P6SM FEW150 SCT200=



000
FTUS45 KPUB 291726
TAFALS
TAF
KALS 291726Z 2918/3018 19018G28KT P6SM VCTS SCT060CB BKN100
      TEMPO 2919/2923 VRB30G40KT 5SM -TSRA BKN040CB
     FM292300 24012G22KT P6SM SCT080 BKN150
     FM300200 24008KT P6SM SCT150
     FM300600 VRB06KT P6SM FEW200=



000
FTUS45 KPUB 291726
TAFCOS
TAF
KCOS 291726Z 2918/3018 16008KT P6SM SCT060
     FM292000 20015G25KT P6SM VCTS SCT050CB BKN100
      TEMPO 2920/2924 VRB25G45KT 3SM TSRA BKN030CB
     FM300100 29012KT P6SM SCT080 BKN140
     FM300500 34008KT P6SM FEW140 SCT200=



000
FTUS45 KPUB 291312 AAA
TAFALS
TAF AMD
KALS 291312Z 2913/3012 VRB03KT 2SM BR BKN003
     FM291500 18010KT P6SM SCT050 BKN100
     FM291900 20018G30KT P6SM VCTS SCT060CB BKN100
     FM292300 24012G22KT P6SM SCT080 BKN150
     FM300200 24008KT P6SM SCT150
     FM300600 VRB06KT P6SM SCT200=



000
FTUS45 KPUB 291312 AAA
TAFALS
TAF AMD
KALS 291312Z 2913/3012 VRB03KT 2SM BR BKN003
     FM291500 18010KT P6SM SCT050 BKN100
     FM291900 20018G30KT P6SM VCTS SCT060CB BKN100
     FM292300 24012G22KT P6SM SCT080 BKN150
     FM300200 24008KT P6SM SCT150
     FM300600 VRB06KT P6SM SCT200=



000
FTUS45 KPUB 291122
TAFCOS
TAF
KCOS 291122Z 2912/3012 03008KT P6SM VCSH SCT050 BKN100
     FM291500 17007KT P6SM SCT050 BKN100
     FM291900 18015G25KT P6SM VCTS SCT070CB BKN100
      TEMPO 2919/2921 VRB20G40KT 3SM TSRA BKN030CB
     FM292100 22018G30KT P6SM VCTS SCT040CB BKN080
     FM300000 24012KT P6SM SCT070 BKN150
     FM300500 34008KT P6SM SCT150=



000
FTUS45 KPUB 291122
TAFALS
TAF
KALS 291122Z 2912/3012 VRB06KT P6SM SCT050 BKN100
     FM291500 18010KT P6SM SCT050 BKN100
     FM291900 20018G30KT P6SM VCTS SCT060CB BKN100
     FM292300 24012G22KT P6SM SCT080 BKN150
     FM300200 24008KT P6SM SCT150
     FM300600 VRB06KT P6SM SCT200=



000
FTUS45 KPUB 291122
TAFPUB
TAF
KPUB 291122Z 2912/3012 VRB06KT P6SM FEW100 SCT200
     FM291700 18011KT P6SM SCT100 SCT200
     FM291900 20014G24KT P6SM VCTS SCT080CB BKN120
     FM300100 26012G22KT P6SM SCT080 BKN150
     FM300400 VRB06KT P6SM SCT150=



000
FTUS45 KPUB 291122
TAFALS
TAF
KALS 291122Z 2912/3012 VRB06KT P6SM SCT050 BKN100
     FM291500 18010KT P6SM SCT050 BKN100
     FM291900 20018G30KT P6SM VCTS SCT060CB BKN100
     FM292300 24012G22KT P6SM SCT080 BKN150
     FM300200 24008KT P6SM SCT150
     FM300600 VRB06KT P6SM SCT200=



000
FTUS45 KPUB 291122
TAFPUB
TAF
KPUB 291122Z 2912/3012 VRB06KT P6SM FEW100 SCT200
     FM291700 18011KT P6SM SCT100 SCT200
     FM291900 20014G24KT P6SM VCTS SCT080CB BKN120
     FM300100 26012G22KT P6SM SCT080 BKN150
     FM300400 VRB06KT P6SM SCT150=



000
FTUS45 KPUB 291122
TAFCOS
TAF
KCOS 291122Z 2912/3012 03008KT P6SM VCSH SCT050 BKN100
     FM291500 17007KT P6SM SCT050 BKN100
     FM291900 18015G25KT P6SM VCTS SCT070CB BKN100
      TEMPO 2919/2921 VRB20G40KT 3SM TSRA BKN030CB
     FM292100 22018G30KT P6SM VCTS SCT040CB BKN080
     FM300000 24012KT P6SM SCT070 BKN150
     FM300500 34008KT P6SM SCT150=



000
FTUS45 KPUB 290528
TAFALS
TAF
KALS 290528Z 2906/3006 19009KT P6SM SCT050 BKN100
     FM291000 VRB06KT P6SM FEW020 SCT100
     FM291700 18010KT P6SM SCT100 SCT200
     FM291900 20015G25KT P6SM VCTS SCT060CB BKN100
     FM292300 24012G22KT P6SM SCT080 BKN150=



000
FTUS45 KPUB 290528
TAFPUB
TAF
KPUB 290528Z 2906/3006 03009KT P6SM FEW100 SCT200
     FM291700 18011KT P6SM SCT100 SCT200
     FM291900 20014G24KT P6SM VCTS SCT080CB BKN120
     FM300100 26012G22KT P6SM SCT080 BKN150=



000
FTUS45 KPUB 290528
TAFCOS
TAF
KCOS 290528Z 2906/3006 03008KT P6SM SCT080 SCT200
     FM291600 19011KT P6SM SCT080 SCT200
     FM291900 19015G25KT P6SM VCTS SCT070CB BKN100
     FM300100 24012G22KT P6SM SCT070 BKN100=



000
FTUS45 KPUB 290528
TAFALS
TAF
KALS 290528Z 2906/3006 19009KT P6SM SCT050 BKN100
     FM291000 VRB06KT P6SM FEW020 SCT100
     FM291700 18010KT P6SM SCT100 SCT200
     FM291900 20015G25KT P6SM VCTS SCT060CB BKN100
     FM292300 24012G22KT P6SM SCT080 BKN150=



000
FTUS45 KPUB 290528
TAFCOS
TAF
KCOS 290528Z 2906/3006 03008KT P6SM SCT080 SCT200
     FM291600 19011KT P6SM SCT080 SCT200
     FM291900 19015G25KT P6SM VCTS SCT070CB BKN100
     FM300100 24012G22KT P6SM SCT070 BKN100=



000
FTUS45 KPUB 290528
TAFPUB
TAF
KPUB 290528Z 2906/3006 03009KT P6SM FEW100 SCT200
     FM291700 18011KT P6SM SCT100 SCT200
     FM291900 20014G24KT P6SM VCTS SCT080CB BKN120
     FM300100 26012G22KT P6SM SCT080 BKN150=



000
FTUS45 KPUB 282331
TAFCOS
TAF
KCOS 282331Z 2900/2924 18012KT P6SM VCTS SCT060CB BKN150
     FM290200 11008KT P6SM SCT060 BKN150
     FM290700 03008KT P6SM SCT080 SCT200
     FM291600 19011KT P6SM SCT080 SCT200
     FM291900 19015KT P6SM VCTS SCT070CB BKN150=



000
FTUS45 KPUB 282331
TAFALS
TAF
KALS 282331Z 2900/2924 19009KT P6SM SCT050 BKN150
     FM291000 VRB06KT P6SM FEW020 SCT150
     FM291700 18010KT P6SM SCT100 SCT200
     FM291900 20015KT P6SM VCTS SCT060CB BKN150=



000
FTUS45 KPUB 282331
TAFPUB
TAF
KPUB 282331Z 2900/2924 10006KT P6SM SCT100 SCT200
      TEMPO 2900/2902 34012KT
     FM290700 05008KT P6SM FEW100 SCT200
     FM291700 18011KT P6SM SCT100 SCT200
     FM291900 19014KT P6SM VCTS SCT080CB BKN150=



000
FTUS45 KPUB 282331
TAFCOS
TAF
KCOS 282331Z 2900/2924 18012KT P6SM VCTS SCT060CB BKN150
     FM290200 11008KT P6SM SCT060 BKN150
     FM290700 03008KT P6SM SCT080 SCT200
     FM291600 19011KT P6SM SCT080 SCT200
     FM291900 19015KT P6SM VCTS SCT070CB BKN150=



000
FTUS45 KPUB 282331
TAFPUB
TAF
KPUB 282331Z 2900/2924 10006KT P6SM SCT100 SCT200
      TEMPO 2900/2902 34012KT
     FM290700 05008KT P6SM FEW100 SCT200
     FM291700 18011KT P6SM SCT100 SCT200
     FM291900 19014KT P6SM VCTS SCT080CB BKN150=



000
FTUS45 KPUB 282331
TAFALS
TAF
KALS 282331Z 2900/2924 19009KT P6SM SCT050 BKN150
     FM291000 VRB06KT P6SM FEW020 SCT150
     FM291700 18010KT P6SM SCT100 SCT200
     FM291900 20015KT P6SM VCTS SCT060CB BKN150=



000
FTUS45 KPUB 282239 AAB
TAFPUB
TAF AMD
KPUB 282239Z 2823/2918 VRB15G25KT P6SM VCTS BKN080CB BKN150
      TEMPO 2823/2902 13010KT SCT080CB
     FM290200 10006KT P6SM SCT100 SCT200
     FM290700 05008KT P6SM FEW100 SCT200
     FM291700 18011KT P6SM SCT100 SCT200=



000
FTUS45 KPUB 282236 AAA
TAFALS
TAF AMD
KALS 282236Z 2823/2918 17009KT P6SM SCT050 BKN150
      TEMPO 2823/2901 BKN050
     FM291000 VRB06KT P6SM FEW020 SCT150
     FM291700 18010KT P6SM SCT100 SCT200=



000
FTUS45 KPUB 282236 AAA
TAFALS
TAF AMD
KALS 282236Z 2823/2918 17009KT P6SM SCT050 BKN150
      TEMPO 2823/2901 BKN050
     FM291000 VRB06KT P6SM FEW020 SCT150
     FM291700 18010KT P6SM SCT100 SCT200=



000
FTUS45 KPUB 282202 AAB
TAFCOS
TAF AMD
KCOS 282202Z 2822/2918 17012G22KT P6SM VCTS SCT060CB BKN150
      TEMPO 2822/2823 VRB20G30KT -TSRA BKN060CB
     FM290100 10008KT P6SM SCT060 BKN150
     FM290700 03008KT P6SM SCT080 SCT200
     FM291600 19011KT P6SM SCT080 SCT200=



000
FTUS45 KPUB 282026 AAB
TAFPUB
TAF AMD
KPUB 282026Z 2820/2918 12010KT P6SM FEW080 SCT150
     FM282200 13011G22KT P6SM SCT080 BKN150
     FM290300 10006KT P6SM SCT100 SCT200
     FM290700 05008KT P6SM FEW100 SCT200
     FM291700 18011KT P6SM SCT100 SCT200=



000
FTUS45 KPUB 282026 AAB
TAFPUB
TAF AMD
KPUB 282026Z 2820/2918 12010KT P6SM FEW080 SCT150
     FM282200 13011G22KT P6SM SCT080 BKN150
     FM290300 10006KT P6SM SCT100 SCT200
     FM290700 05008KT P6SM FEW100 SCT200
     FM291700 18011KT P6SM SCT100 SCT200=



000
FTUS45 KPUB 282025 AAA
TAFCOS
TAF AMD
KCOS 282025Z 2820/2918 12015KT P6SM SCT060 SCT150
     FM282200 17012G22KT P6SM VCTS SCT060CB BKN150
     FM290100 10008KT P6SM SCT060 BKN150
     FM290700 03008KT P6SM SCT080 SCT200
     FM291600 19011KT P6SM SCT080 SCT200=



000
FTUS45 KPUB 282025 AAA
TAFCOS
TAF AMD
KCOS 282025Z 2820/2918 12015KT P6SM SCT060 SCT150
     FM282200 17012G22KT P6SM VCTS SCT060CB BKN150
     FM290100 10008KT P6SM SCT060 BKN150
     FM290700 03008KT P6SM SCT080 SCT200
     FM291600 19011KT P6SM SCT080 SCT200=



000
FTUS45 KPUB 281731
TAFCOS
TAF
KCOS 281731Z 2818/2918 10008KT P6SM SCT090 SCT150
     FM281900 17015KT P6SM SCT090 SCT150
     FM282200 17012G22KT P6SM VCTS SCT070CB BKN150
     FM290100 10008KT P6SM SCT060 BKN150
     FM290700 03008KT P6SM SCT080 SCT200
     FM291600 19011KT P6SM SCT080 SCT200=



000
FTUS45 KPUB 281731
TAFALS
TAF
KALS 281731Z 2818/2918 18015G25KT P6SM SCT030 SCT050 BKN090
     FM282000 20015G25KT P6SM VCTS SCT040CB BKN120
      TEMPO 2820/2824 VRB20G30KT 5SM -TSRA BKN040CB
     FM290200 18009KT P6SM SCT050 BKN150
     FM291000 VRB06KT P6SM FEW020 SCT150
     FM291700 18010KT P6SM SCT100 SCT200=



000
FTUS45 KPUB 281731
TAFPUB
TAF
KPUB 281731Z 2818/2918 11006KT P6SM FEW100 SCT200
     FM282000 14012KT P6SM FEW080 SCT150
     FM282200 13011G22KT P6SM SCT080 BKN150
     FM290300 10006KT P6SM SCT100 SCT200
     FM290700 05008KT P6SM FEW100 SCT200
     FM291700 18011KT P6SM SCT100 SCT200=



000
FTUS45 KPUB 281601 AAA
TAFALS
TAF AMD
KALS 281601Z 2816/2912 18015G25KT P6SM VCSH SCT020 SCT050 BKN090
     FM282000 20015G25KT P6SM VCTS SCT040CB BKN120
     FM290300 18009KT P6SM SCT050 BKN150=



000
FTUS45 KPUB 281601 AAA
TAFALS
TAF AMD
KALS 281601Z 2816/2912 18015G25KT P6SM VCSH SCT020 SCT050 BKN090
     FM282000 20015G25KT P6SM VCTS SCT040CB BKN120
     FM290300 18009KT P6SM SCT050 BKN150=



000
FTUS45 KPUB 281121
TAFPUB
TAF
KPUB 281121Z 2812/2912 03008KT P6SM FEW200
     FM281700 11006KT P6SM FEW100 SCT200
     FM282000 14012KT P6SM FEW080 SCT150
     FM290300 10006KT P6SM FEW100 SCT200
     FM290700 05008KT P6SM FEW100 SCT200=



000
FTUS45 KPUB 281121
TAFALS
TAF
KALS 281121Z 2812/2912 14006KT P6SM FEW100 BKN200
     FM281500 16010KT P6SM VCSH SCT020 BKN050
     FM282000 20015KT P6SM VCTS SCT040CB BKN120
     FM290300 18009KT P6SM SCT050 BKN150=



000
FTUS45 KPUB 281121
TAFCOS
TAF
KCOS 281121Z 2812/2912 03008KT P6SM FEW120 SCT200
     FM281700 17012KT P6SM SCT100 SCT200
     FM282000 17015KT P6SM VCSH SCT070 BKN150
     FM290300 10008KT P6SM SCT060 BKN150
     FM290700 03008KT P6SM SCT060 BKN150=



000
FTUS45 KPUB 281121
TAFPUB
TAF
KPUB 281121Z 2812/2912 03008KT P6SM FEW200
     FM281700 11006KT P6SM FEW100 SCT200
     FM282000 14012KT P6SM FEW080 SCT150
     FM290300 10006KT P6SM FEW100 SCT200
     FM290700 05008KT P6SM FEW100 SCT200=



000
FTUS45 KPUB 281121
TAFALS
TAF
KALS 281121Z 2812/2912 14006KT P6SM FEW100 BKN200
     FM281500 16010KT P6SM VCSH SCT020 BKN050
     FM282000 20015KT P6SM VCTS SCT040CB BKN120
     FM290300 18009KT P6SM SCT050 BKN150=



000
FTUS45 KPUB 281121
TAFCOS
TAF
KCOS 281121Z 2812/2912 03008KT P6SM FEW120 SCT200
     FM281700 17012KT P6SM SCT100 SCT200
     FM282000 17015KT P6SM VCSH SCT070 BKN150
     FM290300 10008KT P6SM SCT060 BKN150
     FM290700 03008KT P6SM SCT060 BKN150=



000
FTUS45 KPUB 280522
TAFCOS
TAF
KCOS 280522Z 2806/2906 03008KT P6SM FEW120 SCT200
     FM281700 17012KT P6SM SCT100 SCT200
     FM282000 17015KT P6SM VCSH SCT070 BKN150
     FM290300 12008KT P6SM SCT060 BKN150=



000
FTUS45 KPUB 280522
TAFALS
TAF
KALS 280522Z 2806/2906 18006KT P6SM FEW100 BKN200
     FM281100 14006KT 5SM BR SCT020
     FM281500 16010KT P6SM VCSH SCT020 BKN050
     FM282000 20015KT P6SM VCTS SCT040CB BKN120
     FM290300 18009KT P6SM SCT050 BKN150=



000
FTUS45 KPUB 280522
TAFPUB
TAF
KPUB 280522Z 2806/2906 VRB05KT P6SM FEW200
     FM281700 11006KT P6SM FEW100 SCT200
     FM282000 14012KT P6SM FEW080 SCT150
     FM290300 10006KT P6SM FEW100 SCT200=



000
FTUS45 KPUB 280522
TAFALS
TAF
KALS 280522Z 2806/2906 18006KT P6SM FEW100 BKN200
     FM281100 14006KT 5SM BR SCT020
     FM281500 16010KT P6SM VCSH SCT020 BKN050
     FM282000 20015KT P6SM VCTS SCT040CB BKN120
     FM290300 18009KT P6SM SCT050 BKN150=



000
FTUS45 KPUB 280522
TAFPUB
TAF
KPUB 280522Z 2806/2906 VRB05KT P6SM FEW200
     FM281700 11006KT P6SM FEW100 SCT200
     FM282000 14012KT P6SM FEW080 SCT150
     FM290300 10006KT P6SM FEW100 SCT200=



000
FTUS45 KPUB 280522
TAFCOS
TAF
KCOS 280522Z 2806/2906 03008KT P6SM FEW120 SCT200
     FM281700 17012KT P6SM SCT100 SCT200
     FM282000 17015KT P6SM VCSH SCT070 BKN150
     FM290300 12008KT P6SM SCT060 BKN150=



000
FTUS45 KPUB 272320
TAFPUB
TAF
KPUB 272320Z 2800/2824 12010KT P6SM FEW120 FEW200
     FM280200 08007KT P6SM FEW120 FEW200
     FM280700 VRB05KT P6SM FEW200
     FM281700 11006KT P6SM FEW100 SCT200
     FM282000 12012KT P6SM FEW080 SCT150=



000
FTUS45 KPUB 272320
TAFCOS
TAF
KCOS 272320Z 2800/2824 13012KT P6SM FEW100 FEW200
     FM280200 07007KT P6SM FEW120 FEW200
     FM280700 03008KT P6SM FEW120 SCT200
     FM281700 17012KT P6SM SCT100 SCT200
     FM282000 17015KT P6SM VCSH SCT070 BKN150=



000
FTUS45 KPUB 272320
TAFALS
TAF
KALS 272320Z 2800/2824 16012G22KT P6SM VCTS SCT070CB BKN200
     FM280200 18010KT P6SM SCT080 BKN120
     FM281100 14006KT 5SM BR SCT020
     FM281500 16010KT P6SM VCSH SCT020 BKN050
     FM282000 20015KT P6SM VCTS SCT040CB BKN120=



000
FTUS45 KPUB 272320
TAFCOS
TAF
KCOS 272320Z 2800/2824 13012KT P6SM FEW100 FEW200
     FM280200 07007KT P6SM FEW120 FEW200
     FM280700 03008KT P6SM FEW120 SCT200
     FM281700 17012KT P6SM SCT100 SCT200
     FM282000 17015KT P6SM VCSH SCT070 BKN150=



000
FTUS45 KPUB 272320
TAFPUB
TAF
KPUB 272320Z 2800/2824 12010KT P6SM FEW120 FEW200
     FM280200 08007KT P6SM FEW120 FEW200
     FM280700 VRB05KT P6SM FEW200
     FM281700 11006KT P6SM FEW100 SCT200
     FM282000 12012KT P6SM FEW080 SCT150=



000
FTUS45 KPUB 272320
TAFALS
TAF
KALS 272320Z 2800/2824 16012G22KT P6SM VCTS SCT070CB BKN200
     FM280200 18010KT P6SM SCT080 BKN120
     FM281100 14006KT 5SM BR SCT020
     FM281500 16010KT P6SM VCSH SCT020 BKN050
     FM282000 20015KT P6SM VCTS SCT040CB BKN120=



    US Dept of Commerce
    National Oceanic and Atmospheric Administration
    National Weather Service
    1325 East West Highway
    Silver Spring, MD 20910
    Page Author: NWS Internet Services Team
Disclaimer
Information Quality
Credits
Glossary
Privacy Policy
Freedom of Information Act (FOIA)
About Us
Career Opportunities